^^
Your Local Weather - Clay, NY Station Historical Data
Daily Summary for December 23, 2017 Units:  English    Metric   Both
« Previous Day
Next Day »
Daily Weekly Monthly Yearly Custom
  High: Low: Average:
Temperature: 32.8 °F 27.6 °F 30.5 °F
Dew Point: 31.3 °F 25.3 °F 28.9 °F
Humidity: 94% 91% 93%
Wind Speed: 4.0mph 0.0mph 1.4mph
Wind Gust: 7.0mph - -
Wind- - South
Pressure: 30.06 in 29.67 in -
Precipitation: 0.01 in    
Historical Graphs
 
 
Tabular Data for December 23, 2017
Time Temperature Dew Point Pressure Wind Wind Speed Wind Gust Humidity Rainfall Rate (Hourly) solar
00:02 27.6 °F 25.3 °F 30.02 in ENE 1.0 mph 2.0 mph 91% 0.00 in 0 W/m2
00:08 27.8 °F 25.8 °F 30.01 in ENE 1.0 mph 4.0 mph 92% 0.00 in 0 W/m2
00:14 27.9 °F 25.9 °F 30.00 in ENE 1.0 mph 3.0 mph 92% 0.00 in 0 W/m2
00:20 28.0 °F 26.0 °F 30.00 in ESE 2.0 mph 2.0 mph 92% 0.00 in 0 W/m2
00:26 28.2 °F 26.2 °F 29.99 in East 2.0 mph 3.0 mph 92% 0.00 in 0 W/m2
00:32 28.3 °F 26.3 °F 29.99 in SE 2.0 mph 3.0 mph 92% 0.00 in 0 W/m2
00:38 28.6 °F 26.6 °F 30.00 in ESE 2.0 mph 3.0 mph 92% 0.00 in 0 W/m2
00:44 28.7 °F 26.7 °F 29.99 in SE 2.0 mph 3.0 mph 92% 0.00 in 0 W/m2
00:50 28.8 °F 26.8 °F 29.99 in ESE 1.0 mph 3.0 mph 92% 0.00 in 0 W/m2
00:56 28.8 °F 26.8 °F 29.99 in ENE 1.0 mph 3.0 mph 92% 0.00 in 0 W/m2
01:02 28.9 °F 26.9 °F 29.99 in ENE 1.0 mph 2.0 mph 92% 0.00 in 0 W/m2
01:08 28.9 °F 26.9 °F 29.98 in East 1.0 mph 2.0 mph 92% 0.00 in 0 W/m2
01:14 29.0 °F 27.0 °F 29.99 in East 1.0 mph 2.0 mph 92% 0.00 in 0 W/m2
01:16 29.0 °F 27.0 °F 29.98 in East 1.0 mph 2.0 mph 92% 0.00 in 0 W/m2
01:22 29.1 °F 27.1 °F 29.98 in East 1.0 mph 1.0 mph 92% 0.00 in 0 W/m2
01:28 29.1 °F 27.1 °F 29.98 in East 1.0 mph 1.0 mph 92% 0.00 in 0 W/m2
01:34 29.1 °F 27.1 °F 29.99 in East 1.0 mph 1.0 mph 92% 0.00 in 0 W/m2
01:40 29.1 °F 27.1 °F 29.98 in Calm     92% 0.00 in 0 W/m2
01:46 29.2 °F 27.2 °F 29.99 in ENE 1.0 mph 3.0 mph 92% 0.00 in 0 W/m2
01:52 29.4 °F 27.4 °F 29.98 in ENE 1.0 mph 3.0 mph 92% 0.00 in 0 W/m2
01:54 29.3 °F 27.3 °F 29.98 in ENE 1.0 mph 3.0 mph 92% 0.00 in 0 W/m2
02:00 29.4 °F 27.4 °F 29.98 in ENE 2.0 mph 2.0 mph 92% 0.00 in 0 W/m2
02:06 29.4 °F 27.6 °F 29.98 in East 1.0 mph 2.0 mph 93% 0.00 in 0 W/m2
02:12 29.4 °F 27.6 °F 29.97 in East 1.0 mph 1.0 mph 93% 0.00 in 0 W/m2
02:16 29.4 °F 27.6 °F 29.97 in East 1.0 mph 1.0 mph 93% 0.00 in 0 W/m2
02:22 29.4 °F 27.6 °F 29.97 in ENE 1.0 mph 2.0 mph 93% 0.00 in 0 W/m2
02:28 29.5 °F 27.7 °F 29.97 in SE 2.0 mph 2.0 mph 93% 0.00 in 0 W/m2
02:34 29.6 °F 27.8 °F 29.97 in ENE 2.0 mph 5.0 mph 93% 0.00 in 0 W/m2
02:40 29.6 °F 27.8 °F 29.97 in ENE 2.0 mph 3.0 mph 93% 0.00 in 0 W/m2
02:46 29.7 °F 27.9 °F 29.97 in SE 2.0 mph 3.0 mph 93% 0.00 in 0 W/m2
02:52 29.8 °F 28.0 °F 29.96 in ENE 2.0 mph 2.0 mph 93% 0.00 in 0 W/m2
02:54 29.8 °F 28.0 °F 29.96 in ENE 2.0 mph 2.0 mph 93% 0.00 in 0 W/m2
03:00 29.9 °F 28.1 °F 29.97 in ENE 1.0 mph 1.0 mph 93% 0.00 in 0 W/m2
03:06 29.9 °F 28.1 °F 29.96 in ENE 1.0 mph 2.0 mph 93% 0.00 in 0 W/m2
03:08 29.9 °F 28.1 °F 29.95 in ESE 1.0 mph 3.0 mph 93% 0.00 in 0 W/m2
03:14 30.0 °F 28.2 °F 29.95 in East 2.0 mph 3.0 mph 93% 0.00 in 0 W/m2
03:20 30.0 °F 28.2 °F 29.95 in SE 2.0 mph 2.0 mph 93% 0.00 in 0 W/m2
03:26 30.0 °F 28.2 °F 29.95 in ENE 2.0 mph 3.0 mph 93% 0.00 in 0 W/m2
03:32 30.0 °F 28.2 °F 29.94 in East 2.0 mph 2.0 mph 93% 0.00 in 0 W/m2
03:38 30.0 °F 28.2 °F 29.94 in East 2.0 mph 3.0 mph 93% 0.00 in 0 W/m2
03:44 30.0 °F 28.2 °F 29.95 in ENE 2.0 mph 3.0 mph 93% 0.00 in 0 W/m2
03:50 30.1 °F 28.3 °F 29.94 in ENE 1.0 mph 1.0 mph 93% 0.00 in 0 W/m2
03:56 30.1 °F 28.3 °F 29.93 in ENE 2.0 mph 3.0 mph 93% 0.00 in 0 W/m2
04:02 30.1 °F 28.3 °F 29.93 in ENE 2.0 mph 3.0 mph 93% 0.00 in 0 W/m2
04:04 30.1 °F 28.3 °F 29.93 in East 3.0 mph 3.0 mph 93% 0.00 in 0 W/m2
04:10 30.1 °F 28.3 °F 29.93 in ENE 2.0 mph 2.0 mph 93% 0.00 in 0 W/m2
04:12 30.1 °F 28.3 °F 29.92 in ENE 2.0 mph 2.0 mph 93% 0.00 in 0 W/m2
04:18 30.2 °F 28.4 °F 29.92 in NE 2.0 mph 2.0 mph 93% 0.00 in 0 W/m2
04:24 30.2 °F 28.4 °F 29.92 in East 1.0 mph 3.0 mph 93% 0.00 in 0 W/m2
04:30 30.2 °F 28.4 °F 29.93 in ENE 2.0 mph 2.0 mph 93% 0.00 in 0 W/m2
04:36 30.2 °F 28.4 °F 29.92 in ENE 2.0 mph 5.0 mph 93% 0.00 in 0 W/m2
04:42 30.3 °F 28.5 °F 29.92 in East 2.0 mph 2.0 mph 93% 0.00 in 0 W/m2
04:48 30.3 °F 28.5 °F 29.91 in ESE 1.0 mph 3.0 mph 93% 0.00 in 0 W/m2
04:54 30.3 °F 28.5 °F 29.91 in ENE 2.0 mph 4.0 mph 93% 0.00 in 0 W/m2
05:00 30.3 °F 28.5 °F 29.91 in East 2.0 mph 3.0 mph 93% 0.00 in 0 W/m2
05:06 30.2 °F 28.4 °F 29.91 in ENE 2.0 mph 7.0 mph 93% 0.00 in 0 W/m2
05:12 30.2 °F 28.4 °F 29.91 in ENE 2.0 mph 2.0 mph 93% 0.00 in 0 W/m2
05:18 30.2 °F 28.4 °F 29.91 in NNE 2.0 mph 2.0 mph 93% 0.00 in 0 W/m2
05:26 30.2 °F 28.4 °F 29.91 in East 1.0 mph 3.0 mph 93% 0.00 in 0 W/m2
05:32 30.2 °F 28.4 °F 29.90 in NE 3.0 mph 3.0 mph 93% 0.00 in 0 W/m2
05:38 30.2 °F 28.4 °F 29.90 in East 3.0 mph 5.0 mph 93% 0.00 in 0 W/m2
05:46 30.2 °F 28.4 °F 29.89 in ENE 3.0 mph 5.0 mph 93% 0.00 in 0 W/m2
05:52 30.1 °F 28.3 °F 29.89 in East 2.0 mph 2.0 mph 93% 0.00 in 0 W/m2
05:56 30.1 °F 28.3 °F 29.89 in ENE 2.0 mph 2.0 mph 93% 0.00 in 0 W/m2
06:02 30.1 °F 28.3 °F 29.89 in East 2.0 mph 5.0 mph 93% 0.00 in 0 W/m2
06:08 30.1 °F 28.3 °F 29.89 in SE 2.0 mph 5.0 mph 93% 0.00 in 0 W/m2
06:14 30.2 °F 28.4 °F 29.89 in ENE 2.0 mph 3.0 mph 93% 0.00 in 0 W/m2
06:20 30.2 °F 28.4 °F 29.89 in ENE 1.0 mph 2.0 mph 93% 0.00 in 0 W/m2
06:26 30.3 °F 28.5 °F 29.90 in East 1.0 mph 3.0 mph 93% 0.00 in 0 W/m2
06:32 30.3 °F 28.5 °F 29.89 in East 1.0 mph 2.0 mph 93% 0.00 in 0 W/m2
06:34 30.3 °F 28.5 °F 29.89 in ENE 1.0 mph 2.0 mph 93% 0.00 in 0 W/m2
06:40 30.3 °F 28.5 °F 29.89 in East 2.0 mph 2.0 mph 93% 0.00 in 0 W/m2
06:46 30.3 °F 28.5 °F 29.89 in ESE 2.0 mph 2.0 mph 93% 0.00 in 0 W/m2
06:52 30.4 °F 28.6 °F 29.89 in ESE 2.0 mph 3.0 mph 93% 0.00 in 0 W/m2
06:58 30.5 °F 28.7 °F 29.89 in ENE 1.0 mph 3.0 mph 93% 0.00 in 0 W/m2
07:04 30.5 °F 28.7 °F 29.89 in ENE 1.0 mph 1.0 mph 93% 0.00 in 0 W/m2
07:10 30.6 °F 28.8 °F 29.88 in ENE 1.0 mph 1.0 mph 93% 0.00 in 0 W/m2
07:16 30.6 °F 28.8 °F 29.87 in ENE 1.0 mph 1.0 mph 93% 0.00 in 0 W/m2
07:22 30.7 °F 28.9 °F 29.87 in East 2.0 mph 3.0 mph 93% 0.00 in 0 W/m2
07:28 30.7 °F 28.9 °F 29.86 in East 2.0 mph 3.0 mph 93% 0.00 in 0 W/m2
07:36 30.8 °F 29.0 °F 29.86 in SE 1.0 mph 3.0 mph 93% 0.00 in 0 W/m2
07:42 30.8 °F 29.0 °F 29.85 in NE 1.0 mph 2.0 mph 93% 0.00 in 0 W/m2
07:48 30.9 °F 29.1 °F 29.84 in East 2.0 mph 5.0 mph 93% 0.00 in 0 W/m2
07:54 30.9 °F 29.1 °F 29.84 in ENE 3.0 mph 3.0 mph 93% 0.00 in 5 W/m2
08:00 31.0 °F 29.2 °F 29.84 in ESE 2.0 mph 2.0 mph 93% 0.00 in 5 W/m2
08:04 31.0 °F 29.2 °F 29.83 in ESE 1.0 mph 2.0 mph 93% 0.00 in 5 W/m2
08:10 31.1 °F 29.3 °F 29.83 in SE 1.0 mph 1.0 mph 93% 0.00 in 7 W/m2
08:16 31.2 °F 29.4 °F 29.83 in ESE 2.0 mph 2.0 mph 93% 0.00 in 11 W/m2
08:22 31.3 °F 29.5 °F 29.82 in ENE 2.0 mph 4.0 mph 93% 0.00 in 14 W/m2
08:28 31.4 °F 29.6 °F 29.81 in East 2.0 mph 4.0 mph 93% 0.00 in 18 W/m2
08:34 31.4 °F 29.6 °F 29.81 in ENE 2.0 mph 2.0 mph 93% 0.00 in 19 W/m2
08:40 31.4 °F 29.6 °F 29.82 in ESE 2.0 mph 2.0 mph 93% 0.00 in 21 W/m2
08:44 31.5 °F 29.7 °F 29.82 in NE 2.0 mph 3.0 mph 93% 0.00 in 21 W/m2
08:50 31.5 °F 29.7 °F 29.83 in East 2.0 mph 2.0 mph 93% 0.00 in 23 W/m2
08:56 31.6 °F 29.8 °F 29.82 in East 1.0 mph 2.0 mph 93% 0.00 in 21 W/m2
09:02 31.6 °F 29.8 °F 29.81 in East 1.0 mph 1.0 mph 93% 0.00 in 21 W/m2
09:08 31.7 °F 29.9 °F 29.81 in East 1.0 mph 3.0 mph 93% 0.00 in 19 W/m2
09:14 31.7 °F 29.9 °F 29.81 in ENE 1.0 mph 3.0 mph 93% 0.00 in 19 W/m2
09:20 31.8 °F 30.0 °F 29.80 in East 1.0 mph 1.0 mph 93% 0.00 in 18 W/m2
09:26 31.8 °F 30.0 °F 29.79 in East 1.0 mph 2.0 mph 93% 0.00 in 18 W/m2
09:32 31.8 °F 30.0 °F 29.79 in ENE 1.0 mph 1.0 mph 93% 0.00 in 26 W/m2
09:38 31.9 °F 30.1 °F 29.80 in ENE 1.0 mph 2.0 mph 93% 0.00 in 25 W/m2
09:44 31.9 °F 30.1 °F 29.80 in ENE 1.0 mph 1.0 mph 93% 0.00 in 23 W/m2
09:50 32.0 °F 30.2 °F 29.79 in East 1.0 mph 1.0 mph 93% 0.00 in 28 W/m2
09:56 32.0 °F 30.2 °F 29.78 in East 1.0 mph 1.0 mph 93% 0.00 in 30 W/m2
10:02 32.0 °F 30.2 °F 29.78 in NE 1.0 mph 1.0 mph 93% 0.00 in 32 W/m2
10:08 32.1 °F 30.3 °F 29.78 in East 1.0 mph 3.0 mph 93% 0.00 in 32 W/m2
10:12 32.1 °F 30.3 °F 29.78 in East 1.0 mph 2.0 mph 93% 0.00 in 26 W/m2
10:18 32.1 °F 30.3 °F 29.76 in East 1.0 mph 2.0 mph 93% 0.00 in 26 W/m2
10:24 32.1 °F 30.3 °F 29.76 in East 1.0 mph 1.0 mph 93% 0.00 in 30 W/m2
10:30 32.1 °F 30.3 °F 29.76 in East 1.0 mph 1.0 mph 93% 0.00 in 32 W/m2
10:36 32.1 °F 30.3 °F 29.76 in East 1.0 mph 2.0 mph 93% 0.00 in 32 W/m2
10:42 32.1 °F 30.3 °F 29.76 in ENE 1.0 mph 4.0 mph 93% 0.00 in 25 W/m2
10:48 32.2 °F 30.7 °F 29.76 in ENE 1.0 mph 4.0 mph 94% 0.00 in 32 W/m2
10:54 32.2 °F 30.7 °F 29.75 in East 2.0 mph 3.0 mph 94% 0.00 in 30 W/m2
11:00 32.2 °F 30.7 °F 29.75 in ENE 3.0 mph 3.0 mph 94% 0.00 in 26 W/m2
11:06 32.3 °F 30.8 °F 29.75 in NE 2.0 mph 4.0 mph 94% 0.00 in 30 W/m2
11:12 32.3 °F 30.8 °F 29.73 in ENE 2.0 mph 4.0 mph 94% 0.00 in 28 W/m2
11:24 32.4 °F 30.9 °F 29.72 in ESE 4.0 mph 5.0 mph 94% 0.00 in 37 W/m2
11:30 32.5 °F 31.0 °F 29.73 in SE 3.0 mph 3.0 mph 94% 0.00 in 32 W/m2
11:36 32.5 °F 31.0 °F 29.73 in East 1.0 mph 3.0 mph 94% 0.00 in 39 W/m2
11:42 32.6 °F 31.1 °F 29.72 in ENE 1.0 mph 2.0 mph 94% 0.00 in 44 W/m2
11:48 32.6 °F 31.1 °F 29.72 in ENE 2.0 mph 2.0 mph 94% 0.00 in 44 W/m2
11:54 32.7 °F 31.2 °F 29.72 in ENE 1.0 mph 2.0 mph 94% 0.00 in 37 W/m2
12:00 32.7 °F 31.2 °F 29.73 in Calm     94% 0.00 in 25 W/m2
12:06 32.8 °F 31.3 °F 29.72 in Calm     94% 0.00 in 28 W/m2
13:09 32.3 °F 30.8 °F 29.67 in NNW 2.0 mph 2.0 mph 94% 0.00 in 21 W/m2
13:15 32.2 °F 30.7 °F 29.68 in NNW 1.0 mph 3.0 mph 94% 0.00 in 21 W/m2
13:22 32.1 °F 30.6 °F 29.68 in NNW 1.0 mph 1.0 mph 94% 0.00 in 23 W/m2
13:28 32.0 °F 30.5 °F 29.68 in NNW 1.0 mph 2.0 mph 94% 0.00 in 30 W/m2
13:33 31.9 °F 30.4 °F 29.68 in NNW 1.0 mph 2.0 mph 94% 0.00 in 26 W/m2
13:35 31.9 °F 30.4 °F 29.68 in NNW 1.0 mph 2.0 mph 94% 0.00 in 25 W/m2
13:42 31.9 °F 30.4 °F 29.68 in NNW 1.0 mph 1.0 mph 94% 0.00 in 26 W/m2
13:43 31.9 °F 30.4 °F 29.68 in NNW 1.0 mph 1.0 mph 94% 0.00 in 30 W/m2
13:49 31.8 °F 30.3 °F 29.68 in NNW 1.0 mph 1.0 mph 94% 0.00 in 23 W/m2
13:55 31.7 °F 30.2 °F 29.68 in NNW 1.0 mph 1.0 mph 94% 0.00 in 18 W/m2
14:02 31.6 °F 30.1 °F 29.68 in WNW 2.0 mph 4.0 mph 94% 0.00 in 19 W/m2
14:08 31.5 °F 30.0 °F 29.69 in WNW 3.0 mph 4.0 mph 94% 0.00 in 16 W/m2
14:13 31.5 °F 30.0 °F 29.70 in NW 2.0 mph 3.0 mph 94% 0.00 in 18 W/m2
14:19 31.5 °F 30.0 °F 29.70 in WNW 2.0 mph 2.0 mph 94% 0.00 in 19 W/m2
14:25 31.5 °F 30.0 °F 29.70 in WNW 3.0 mph 3.0 mph 94% 0.00 in 21 W/m2
14:31 31.5 °F 30.0 °F 29.70 in WNW 2.0 mph 2.0 mph 94% 0.00 in 23 W/m2
14:35 31.5 °F 30.0 °F 29.71 in WNW 2.0 mph 3.0 mph 94% 0.00 in 18 W/m2
14:42 31.6 °F 30.1 °F 29.71 in WNW 2.0 mph 3.0 mph 94% 0.00 in 23 W/m2
14:48 31.5 °F 30.0 °F 29.72 in West 2.0 mph 7.0 mph 94% 0.00 in 18 W/m2
14:53 31.4 °F 29.9 °F 29.72 in WNW 3.0 mph 6.0 mph 94% 0.00 in 16 W/m2
14:59 31.3 °F 29.8 °F 29.73 in NW 3.0 mph 3.0 mph 94% 0.00 in 18 W/m2
15:05 31.1 °F 29.6 °F 29.73 in NW 4.0 mph 4.0 mph 94% 0.00 in 12 W/m2
15:11 31.0 °F 29.5 °F 29.75 in WNW 3.0 mph 5.0 mph 94% 0.00 in 12 W/m2
15:18 30.9 °F 29.4 °F 29.76 in WNW 4.0 mph 5.0 mph 94% 0.00 in 9 W/m2
15:23 30.9 °F 29.4 °F 29.75 in WNW 4.0 mph 4.0 mph 94% 0.00 in 9 W/m2
15:29 30.8 °F 29.3 °F 29.76 in NW 3.0 mph 3.0 mph 94% 0.00 in 9 W/m2
15:35 30.7 °F 29.2 °F 29.76 in NNW 3.0 mph 3.0 mph 94% 0.00 in 9 W/m2
15:38 30.7 °F 29.2 °F 29.76 in NW 3.0 mph 3.0 mph 94% 0.00 in 11 W/m2
15:43 30.5 °F 29.0 °F 29.77 in WNW 3.0 mph 3.0 mph 94% 0.00 in 12 W/m2
15:49 30.5 °F 29.0 °F 29.78 in NW 2.0 mph 2.0 mph 94% 0.00 in 7 W/m2
15:55 30.2 °F 28.7 °F 29.79 in WNW 2.0 mph 4.0 mph 94% 0.00 in 5 W/m2
16:02 29.9 °F 28.4 °F 29.79 in NW 3.0 mph 3.0 mph 94% 0.00 in 5 W/m2
16:08 29.7 °F 28.2 °F 29.79 in NW 3.0 mph 3.0 mph 94% 0.00 in 5 W/m2
16:13 29.6 °F 28.1 °F 29.81 in WNW 3.0 mph 4.0 mph 94% 0.00 in 0 W/m2
16:19 29.5 °F 28.0 °F 29.81 in WNW 2.0 mph 2.0 mph 94% 0.00 in 0 W/m2
16:25 29.5 °F 28.0 °F 29.81 in WNW 2.0 mph 3.0 mph 94% 0.00 in 0 W/m2
16:32 29.4 °F 27.9 °F 29.81 in WNW 2.0 mph 2.0 mph 94% 0.00 in 0 W/m2
16:38 29.4 °F 27.9 °F 29.81 in WNW 1.0 mph 3.0 mph 94% 0.00 in 0 W/m2
16:43 29.4 °F 27.9 °F 29.82 in WNW 1.0 mph 2.0 mph 94% 0.00 in 0 W/m2
16:49 29.4 °F 27.9 °F 29.82 in WNW 1.0 mph 1.0 mph 94% 0.00 in 0 W/m2
16:55 29.4 °F 27.9 °F 29.82 in NW 2.0 mph 3.0 mph 94% 0.00 in 0 W/m2
17:02 29.4 °F 27.9 °F 29.82 in NW 1.0 mph 2.0 mph 94% 0.00 in 0 W/m2
17:08 29.4 °F 27.9 °F 29.83 in NW 1.0 mph 2.0 mph 94% 0.00 in 0 W/m2
17:13 29.4 °F 27.9 °F 29.83 in NW 1.0 mph 2.0 mph 94% 0.00 in 0 W/m2
17:19 29.4 °F 27.9 °F 29.83 in NW 1.0 mph 2.0 mph 94% 0.00 in 0 W/m2
17:25 29.4 °F 27.9 °F 29.82 in NW 1.0 mph 3.0 mph 94% 0.00 in 0 W/m2
17:32 29.4 °F 27.9 °F 29.82 in NW 1.0 mph 3.0 mph 94% 0.00 in 0 W/m2
17:38 29.4 °F 27.9 °F 29.82 in NW 1.0 mph 3.0 mph 94% 0.00 in 0 W/m2
17:42 29.4 °F 27.9 °F 29.83 in NW 1.0 mph 1.0 mph 94% 0.00 in 0 W/m2
17:48 29.4 °F 27.9 °F 29.84 in NW 1.0 mph 3.0 mph 94% 0.00 in 0 W/m2
17:53 29.4 °F 27.9 °F 29.83 in NW 1.0 mph 1.0 mph 94% 0.00 in 0 W/m2
17:59 29.4 °F 27.9 °F 29.84 in Calm     94% 0.00 in 0 W/m2
18:05 29.5 °F 28.0 °F 29.85 in Calm   1.0 mph 94% 0.00 in 0 W/m2
18:08 29.5 °F 28.0 °F 29.85 in Calm   1.0 mph 94% 0.00 in 0 W/m2
18:13 29.5 °F 28.0 °F 29.85 in Calm   1.0 mph 94% 0.00 in 0 W/m2
18:19 29.6 °F 28.1 °F 29.85 in NW 1.0 mph 1.0 mph 94% 0.00 in 0 W/m2
18:25 29.6 °F 28.1 °F 29.85 in NW 1.0 mph 1.0 mph 94% 0.00 in 0 W/m2
18:29 29.6 °F 28.1 °F 29.85 in NW 1.0 mph 1.0 mph 94% 0.00 in 0 W/m2
18:35 29.6 °F 28.1 °F 29.87 in NW 1.0 mph 2.0 mph 94% 0.00 in 0 W/m2
18:42 29.7 °F 28.2 °F 29.88 in WNW 2.0 mph 2.0 mph 94% 0.00 in 0 W/m2
18:48 29.7 °F 28.2 °F 29.88 in WNW 2.0 mph 3.0 mph 94% 0.00 in 0 W/m2
18:53 29.8 °F 28.3 °F 29.88 in WNW 2.0 mph 3.0 mph 94% 0.00 in 0 W/m2
18:58 29.8 °F 28.3 °F 29.89 in WNW 2.0 mph 3.0 mph 94% 0.00 in 0 W/m2
19:03 29.8 °F 28.3 °F 29.88 in WNW 2.0 mph 2.0 mph 94% 0.00 in 0 W/m2
19:09 29.8 °F 28.3 °F 29.89 in WNW 1.0 mph 2.0 mph 94% 0.00 in 0 W/m2
19:16 29.9 °F 28.4 °F 29.90 in WNW 1.0 mph 4.0 mph 94% 0.00 in 0 W/m2
19:22 29.9 °F 28.4 °F 29.91 in WNW 2.0 mph 2.0 mph 94% 0.00 in 0 W/m2
19:28 30.0 °F 28.5 °F 29.91 in WNW 1.0 mph 2.0 mph 94% 0.00 in 0 W/m2
19:33 30.0 °F 28.5 °F 29.91 in WNW 1.0 mph 2.0 mph 94% 0.00 in 0 W/m2
19:39 30.0 °F 28.5 °F 29.91 in WNW 1.0 mph 1.0 mph 94% 0.00 in 0 W/m2
19:45 30.0 °F 28.5 °F 29.92 in Calm   1.0 mph 94% 0.00 in 0 W/m2
19:49 30.1 °F 28.6 °F 29.92 in Calm     94% 0.00 in 0 W/m2
19:55 30.1 °F 28.6 °F 29.92 in WNW 1.0 mph 2.0 mph 94% 0.00 in 0 W/m2
20:02 30.2 °F 28.7 °F 29.92 in Calm   1.0 mph 94% 0.00 in 0 W/m2
20:08 30.3 °F 28.8 °F 29.93 in Calm   1.0 mph 94% 0.00 in 0 W/m2
20:13 30.3 °F 28.8 °F 29.93 in WNW 1.0 mph 3.0 mph 94% 0.00 in 0 W/m2
20:19 30.4 °F 28.9 °F 29.93 in WNW 1.0 mph 1.0 mph 94% 0.00 in 0 W/m2
20:25 30.4 °F 28.9 °F 29.94 in WNW 1.0 mph 2.0 mph 94% 0.00 in 0 W/m2
20:32 30.5 °F 29.0 °F 29.95 in Calm     94% 0.00 in 0 W/m2
20:38 30.6 °F 29.1 °F 29.95 in WNW 1.0 mph 2.0 mph 94% 0.00 in 0 W/m2
20:43 30.6 °F 29.1 °F 29.96 in WNW 1.0 mph 5.0 mph 94% 0.00 in 0 W/m2
20:45 30.7 °F 29.2 °F 29.96 in WNW 1.0 mph 5.0 mph 94% 0.00 in 0 W/m2
20:52 30.7 °F 29.2 °F 29.97 in WNW 1.0 mph 1.0 mph 94% 0.00 in 0 W/m2
20:58 30.7 °F 29.2 °F 29.97 in WNW 1.0 mph 1.0 mph 94% 0.00 in 0 W/m2
21:03 30.8 °F 29.3 °F 29.98 in WNW 1.0 mph 3.0 mph 94% 0.00 in 0 W/m2
21:08 30.8 °F 29.3 °F 29.98 in WNW 1.0 mph 3.0 mph 94% 0.00 in 0 W/m2
21:13 30.8 °F 29.3 °F 29.98 in Calm   1.0 mph 94% 0.00 in 0 W/m2
21:19 30.8 °F 29.3 °F 29.99 in WNW 1.0 mph 1.0 mph 94% 0.00 in 0 W/m2
21:25 30.8 °F 29.3 °F 29.99 in Calm   1.0 mph 94% 0.00 in 0 W/m2
21:32 30.8 °F 29.3 °F 29.99 in Calm   1.0 mph 94% 0.00 in 0 W/m2
21:38 30.9 °F 29.4 °F 29.99 in Calm   1.0 mph 94% 0.00 in 0 W/m2
21:43 30.9 °F 29.4 °F 30.00 in WNW 1.0 mph 2.0 mph 94% 0.00 in 0 W/m2
21:49 31.0 °F 29.5 °F 30.00 in WNW 1.0 mph 1.0 mph 94% 0.00 in 0 W/m2
21:55 31.0 °F 29.5 °F 30.00 in Calm   1.0 mph 94% 0.00 in 0 W/m2
22:02 31.0 °F 29.5 °F 30.01 in Calm     94% 0.00 in 0 W/m2
22:08 31.1 °F 29.6 °F 30.01 in Calm     94% 0.00 in 0 W/m2
22:13 31.1 °F 29.6 °F 30.02 in Calm   1.0 mph 94% 0.00 in 0 W/m2
22:19 31.2 °F 29.7 °F 30.03 in Calm   2.0 mph 94% 0.00 in 0 W/m2
22:28 31.2 °F 29.7 °F 30.03 in WNW 1.0 mph 2.0 mph 94% 0.00 in 0 W/m2
22:29 31.3 °F 29.8 °F 30.03 in WNW 1.0 mph 1.0 mph 94% 0.00 in 0 W/m2
22:35 31.2 °F 29.7 °F 30.02 in WNW 1.0 mph 1.0 mph 94% 0.00 in 0 W/m2
22:42 31.3 °F 29.8 °F 30.03 in Calm     94% 0.00 in 0 W/m2
22:48 31.3 °F 29.8 °F 30.03 in WNW 1.0 mph 1.0 mph 94% 0.00 in 0 W/m2
22:54 31.4 °F 29.9 °F 30.04 in Calm   1.0 mph 94% 0.00 in 0 W/m2
22:59 31.4 °F 29.9 °F 30.04 in WNW 1.0 mph 1.0 mph 94% 0.00 in 0 W/m2
23:05 31.4 °F 29.9 °F 30.05 in WNW 1.0 mph 3.0 mph 94% 0.00 in 0 W/m2
23:12 31.4 °F 29.9 °F 30.05 in WNW 1.0 mph 2.0 mph 94% 0.00 in 0 W/m2
23:18 31.4 °F 29.9 °F 30.05 in WNW 1.0 mph 2.0 mph 94% 0.00 in 0 W/m2
23:23 31.4 °F 29.9 °F 30.05 in WNW 1.0 mph 1.0 mph 94% 0.00 in 0 W/m2
23:29 31.4 °F 29.9 °F 30.05 in WNW 1.0 mph 1.0 mph 94% 0.00 in 0 W/m2
23:35 31.4 °F 29.9 °F 30.06 in West 1.0 mph 3.0 mph 94% 0.00 in 0 W/m2
23:42 31.2 °F 29.7 °F 30.06 in NW 2.0 mph 2.0 mph 94% 0.00 in 0 W/m2
23:48 31.2 °F 29.7 °F 30.06 in NW 1.0 mph 2.0 mph 94% 0.00 in 0 W/m2
23:53 31.1 °F 29.6 °F 30.06 in Calm   1.0 mph 94% 0.00 in 0 W/m2
23:59 31.0 °F 29.5 °F 30.06 in NNW 1.0 mph 1.0 mph 94% 0.00 in 0 W/m2
Country Meadow, Clay, NY, USA
Compliments of Weather Underground - 2 mb